Time;durP1;ratioP1;P1;durP2;ratioP2;P2;SDS_P1;SDS_P2;PMS_P1;PMS_P2;Temp;Humidity;BMP_temperature;BMP_pressure;BME280_temperature;BME280_humidity;BME280_pressure;Samples;Min_cycle;Max_cycle;Signal;HPM_P1;HPM_P2
2021/11/17 02:27:07;;;;;;;66.30;35.17;;;;;;;6.58;100.00;98338.22;4954173;29;20074;-83
2021/11/17 02:29:46;;;;;;;69.68;36.17;;;;;;;6.50;100.00;98339.50;4953882;29;20042;-88
2021/11/17 02:32:30;;;;;;;72.78;37.78;;;;;;;6.55;100.00;98325.16;4950095;29;20034;-87
2021/11/17 02:35:09;;;;;;;76.18;38.97;;;;;;;6.53;100.00;98332.72;4968079;29;20046;-89
2021/11/17 02:37:50;;;;;;;76.47;37.63;;;;;;;6.45;100.00;98334.03;4951841;29;20058;-86
2021/11/17 02:40:20;;;;;;;76.88;37.30;;;;;;;6.41;100.00;98331.03;4949258;29;20031;-86
2021/11/17 02:42:52;;;;;;;76.35;38.30;;;;;;;6.45;100.00;98339.47;4951649;29;20035;-86
2021/11/17 02:46:01;;;;;;;69.50;37.67;;;;;;;6.44;100.00;98333.22;4953491;29;20385;-88
2021/11/17 02:48:32;;;;;;;75.20;38.38;;;;;;;6.53;100.00;98336.28;4885677;29;1220081;-90
2021/11/17 02:51:27;;;;;;;71.60;35.50;;;;;;;6.50;100.00;98327.81;4972160;28;20059;-91
2021/11/17 02:54:32;;;;;;;68.80;35.55;;;;;;;6.55;100.00;98327.88;4919228;29;20039;-90
2021/11/17 02:57:32;;;;;;;69.72;34.67;;;;;;;6.53;100.00;98327.28;4877260;29;20041;-88
2021/11/17 03:00:29;;;;;;;69.50;36.55;;;;;;;6.40;100.00;98318.50;4952791;29;20070;-90
2021/11/17 03:03:03;;;;;;;71.57;36.58;;;;;;;6.31;100.00;98317.34;4918873;29;20051;-88
2021/11/17 03:05:50;;;;;;;67.57;36.60;;;;;;;6.26;100.00;98309.16;4974845;29;20047;-86
2021/11/17 03:08:26;;;;;;;68.95;35.80;;;;;;;6.39;100.00;98308.72;4974349;29;20494;-86
2021/11/17 03:10:51;;;;;;;71.78;37.83;;;;;;;6.32;100.00;98308.13;4962981;28;20033;-83
2021/11/17 03:13:52;;;;;;;70.82;35.95;;;;;;;6.39;100.00;98302.47;4991431;28;20034;-84
2021/11/17 03:16:49;;;;;;;72.10;37.38;;;;;;;6.28;100.00;98296.13;4957398;28;20039;-90
2021/11/17 03:19:46;;;;;;;69.38;37.45;;;;;;;6.24;100.00;98295.00;4974132;28;20115;-89
2021/11/17 03:22:14;;;;;;;74.18;36.33;;;;;;;6.23;100.00;98298.81;4958993;28;20030;-86
2021/11/17 03:24:52;;;;;;;73.75;38.00;;;;;;;6.19;100.00;98299.59;4993741;28;20062;-87
2021/11/17 03:27:46;;;;;;;74.50;38.92;;;;;;;6.20;100.00;98304.75;4996018;28;20038;-89
2021/11/17 03:30:31;;;;;;;72.95;37.30;;;;;;;6.18;100.00;98301.47;4951365;28;20029;-88
2021/11/17 03:33:33;;;;;;;75.40;38.65;;;;;;;6.16;100.00;98303.66;4997590;28;20006;-84
2021/11/17 03:36:13;;;;;;;77.68;39.28;;;;;;;6.15;100.00;98296.56;4977058;28;20091;-89
2021/11/17 03:38:57;;;;;;;70.93;38.38;;;;;;;6.22;100.00;98297.19;4996777;28;20046;-90
2021/11/17 03:41:49;;;;;;;73.78;38.35;;;;;;;6.19;100.00;98289.53;4989488;28;20011;-85
2021/11/17 03:44:38;;;;;;;73.63;38.75;;;;;;;6.32;100.00;98291.84;4930394;29;20035;-83
2021/11/17 03:47:09;;;;;;;75.25;38.58;;;;;;;6.31;100.00;98292.91;4921336;29;20047;-88
2021/11/17 03:49:51;;;;;;;72.95;36.33;;;;;;;6.38;100.00;98296.22;4958327;29;20091;-89
2021/11/17 03:52:26;;;;;;;72.43;38.13;;;;;;;6.28;100.00;98298.84;4960753;29;20027;-85
2021/11/17 03:55:24;;;;;;;79.85;38.30;;;;;;;6.35;100.00;98285.06;4959095;29;20468;-90
2021/11/17 03:57:49;;;;;;;68.13;39.00;;;;;;;6.40;100.00;98287.81;4974524;29;20089;-90
2021/11/17 04:00:47;;;;;;;76.30;37.97;;;;;;;6.38;100.00;98288.06;4959209;29;20026;-89
2021/11/17 04:03:12;;;;;;;73.25;37.20;;;;;;;6.43;100.00;98282.66;4959973;29;20100;-89
2021/11/17 04:06:05;;;;;;;66.07;34.80;;;;;;;6.43;100.00;98288.09;4974436;29;20031;-86
2021/11/17 04:08:40;;;;;;;71.13;37.47;;;;;;;6.33;100.00;98281.75;4974391;29;20140;-87
2021/11/17 04:11:21;;;;;;;70.53;35.90;;;;;;;6.15;100.00;98274.84;4957966;29;20054;-89
2021/11/17 04:13:49;;;;;;;69.78;35.53;;;;;;;6.11;100.00;98279.13;4942959;29;20042;-86
2021/11/17 04:16:30;;;;;;;77.65;37.28;;;;;;;6.12;100.00;98286.22;4973633;29;20026;-89
2021/11/17 04:19:22;;;;;;;77.15;36.80;;;;;;;6.18;100.00;98279.75;4959518;29;20027;-84
2021/11/17 04:22:14;;;;;;;72.30;36.53;;;;;;;6.20;100.00;98274.06;4961307;29;20027;-89
2021/11/17 04:25:09;;;;;;;74.28;37.53;;;;;;;6.17;100.00;98283.53;4977504;29;20031;-80
2021/11/17 04:27:53;;;;;;;77.40;35.15;;;;;;;6.18;100.00;98279.75;4947786;28;20111;-87
2021/11/17 04:30:40;;;;;;;73.93;36.60;;;;;;;6.18;100.00;98279.75;4961759;29;20033;-82
2021/11/17 04:33:43;;;;;;;76.05;36.55;;;;;;;6.19;100.00;98286.00;4961988;29;20007;-80
2021/11/17 04:36:18;;;;;;;79.60;37.75;;;;;;;6.11;100.00;98284.56;4961833;28;20027;-80
2021/11/17 04:39:02;;;;;;;78.03;38.65;;;;;;;6.02;100.00;98286.13;4961916;29;20035;-82
2021/11/17 04:41:53;;;;;;;71.70;36.15;;;;;;;6.07;100.00;98277.22;4977768;28;20107;-84
2021/11/17 04:44:34;;;;;;;83.10;41.10;;;;;;;6.09;100.00;98280.47;4962117;28;20019;-76
2021/11/17 04:47:08;;;;;;;79.55;39.47;;;;;;;6.08;100.00;98279.66;5316664;23;20062;-83
2021/11/17 04:49:34;;;;;;;65.50;35.30;;;;;;;6.15;100.00;98280.28;4979452;28;20090;-89
2021/11/17 04:52:25;;;;;;;67.93;35.17;;;;;;;6.00;100.00;98288.28;4980226;28;20046;-89
2021/11/17 04:55:39;;;;;;;73.45;35.42;;;;;;;6.09;100.00;98284.03;4966921;28;20021;-83
2021/11/17 04:58:23;;;;;;;73.18;38.10;;;;;;;6.11;100.00;98281.84;4997577;28;20018;-84
2021/11/17 05:00:57;;;;;;;78.65;38.15;;;;;;;6.10;100.00;98280.25;4997731;28;20031;-87
2021/11/17 05:03:29;;;;;;;80.05;38.50;;;;;;;6.18;100.00;98279.75;4980496;28;20019;-88
2021/11/17 05:06:29;;;;;;;79.45;39.05;;;;;;;6.20;100.00;98288.44;4978778;28;20066;-88
2021/11/17 05:09:36;;;;;;;73.93;37.42;;;;;;;6.24;100.00;98288.75;4977744;28;20022;-86
2021/11/17 05:12:44;;;;;;;75.65;37.75;;;;;;;6.13;100.00;98293.28;4954702;29;20126;-89
2021/11/17 05:15:27;;;;;;;71.68;35.63;;;;;;;6.17;100.00;98280.81;4963383;28;20023;-87
2021/11/17 05:18:08;;;;;;;76.90;36.75;;;;;;;6.22;100.00;98290.91;4975033;29;20083;-88
2021/11/17 05:20:39;;;;;;;74.45;39.13;;;;;;;6.25;100.00;98291.22;4961458;29;20088;-89
2021/11/17 05:23:25;;;;;;;76.55;39.38;;;;;;;6.18;100.00;98279.75;4984081;28;20031;-86
2021/11/17 05:25:59;;;;;;;77.78;38.67;;;;;;;6.16;100.00;98276.50;4980558;28;20034;-86
2021/11/17 05:28:46;;;;;;;81.35;37.35;;;;;;;6.18;100.00;98277.03;4996545;28;20479;-81
2021/11/17 05:31:50;;;;;;;72.35;38.65;;;;;;;6.18;100.00;98285.19;4982269;28;20082;-87
2021/11/17 05:34:33;;;;;;;74.13;37.58;;;;;;;6.22;100.00;98286.31;4997317;28;20031;-81
2021/11/17 05:37:08;;;;;;;75.93;37.47;;;;;;;6.23;100.00;98298.00;4996405;28;20047;-85
2021/11/17 05:39:55;;;;;;;68.75;35.50;;;;;;;6.27;100.00;98294.50;4982676;28;20074;-86
2021/11/17 05:49:24;;;;;;;66.45;34.95;;;;;;;6.30;100.00;98293.97;4998829;28;20070;-79
2021/11/17 05:52:15;;;;;;;67.93;35.35;;;;;;;6.23;100.00;98298.81;4982511;28;20062;-90
2021/11/17 05:54:53;;;;;;;67.57;37.10;;;;;;;6.26;100.00;98292.03;4951367;28;20029;-89
2021/11/17 05:57:18;;;;;;;72.97;35.33;;;;;;;6.31;100.00;98295.63;4981162;28;20023;-85
2021/11/17 05:59:50;;;;;;;72.18;34.78;;;;;;;6.23;100.00;98293.38;4959146;28;20090;-76
2021/11/17 06:02:43;;;;;;;70.82;35.50;;;;;;;6.20;100.00;98293.88;4940278;28;20019;-75
2021/11/17 06:05:09;;;;;;;70.97;34.45;;;;;;;6.23;100.00;98298.81;4971522;28;20027;-84
2021/11/17 06:07:34;;;;;;;66.80;34.08;;;;;;;6.27;100.00;98294.50;4985821;28;20483;-88
2021/11/17 06:10:12;;;;;;;66.50;34.80;;;;;;;6.17;100.00;98283.53;4985789;28;20456;-86
2021/11/17 06:12:38;;;;;;;67.47;36.40;;;;;;;6.32;100.00;98302.69;4985033;28;20035;-88
2021/11/17 06:15:07;;;;;;;80.97;36.58;;;;;;;6.27;100.00;98299.91;4986443;28;20110;-90
2021/11/17 06:17:33;;;;;;;79.22;38.25;;;;;;;6.33;100.00;98298.88;4983464;28;20015;-90
2021/11/17 06:19:59;;;;;;;82.75;40.33;;;;;;;6.34;100.00;98295.09;4971088;28;20034;-91
2021/11/17 06:22:28;;;;;;;87.93;42.95;;;;;;;6.27;100.00;98283.63;4962443;28;20039;-87
2021/11/17 06:24:57;;;;;;;79.22;40.08;;;;;;;6.30;100.00;98296.69;4977367;28;20551;-82
2021/11/17 06:27:28;;;;;;;77.80;39.33;;;;;;;6.24;100.00;98295.00;4987575;28;20034;-88
2021/11/17 06:29:58;;;;;;;71.85;37.08;;;;;;;6.24;100.00;98305.06;5001379;28;20031;-86
2021/11/17 06:32:24;;;;;;;83.50;38.88;;;;;;;6.13;100.00;98306.88;5000648;28;20038;-80
2021/11/17 06:34:58;;;;;;;80.82;36.88;;;;;;;6.18;100.00;98314.22;4982560;28;20034;-86
2021/11/17 06:37:26;;;;;;;75.40;35.65;;;;;;;6.23;100.00;98314.28;4995840;28;20021;-85
2021/11/17 06:39:54;;;;;;;77.32;37.63;;;;;;;6.21;100.00;98311.81;4974566;28;20035;-74
2021/11/17 06:42:31;;;;;;;77.88;39.17;;;;;;;6.26;100.00;98316.50;4974441;28;20484;-75
2021/11/17 06:44:57;;;;;;;83.30;38.85;;;;;;;6.27;100.00;98327.09;4971058;28;21680;-75
2021/11/17 06:47:22;;;;;;;75.07;38.88;;;;;;;6.33;100.00;98328.75;4973231;28;20055;-74
2021/11/17 06:49:48;;;;;;;82.05;39.63;;;;;;;6.37;100.00;98334.50;4954763;28;20039;-75
2021/11/17 06:52:16;;;;;;;79.22;40.65;;;;;;;6.34;100.00;98319.53;4971374;28;20078;-84
2021/11/17 06:54:42;;;;;;;76.78;39.58;;;;;;;6.41;100.00;98328.31;4974241;28;20082;-75
2021/11/17 06:57:07;;;;;;;85.85;41.33;;;;;;;6.59;100.00;98334.41;4973699;28;20023;-76
2021/11/17 06:59:33;;;;;;;81.13;40.38;;;;;;;6.63;100.00;98340.97;4968054;28;20035;-75
2021/11/17 07:02:04;;;;;;;77.40;40.38;;;;;;;6.68;100.00;98332.84;4971873;28;20093;-75
2021/11/17 07:04:31;;;;;;;80.18;40.97;;;;;;;6.77;100.00;98337.53;4955180;28;20042;-77
2021/11/17 07:06:56;;;;;;;80.20;39.25;;;;;;;6.74;100.00;98327.19;4973248;28;20066;-75
2021/11/17 07:09:22;;;;;;;82.88;41.22;;;;;;;6.91;100.00;98337.91;4973192;28;20462;-76
2021/11/17 07:11:47;;;;;;;75.78;39.30;;;;;;;6.94;100.00;98330.03;4973651;28;20027;-75
2021/11/17 07:14:13;;;;;;;78.78;41.40;;;;;;;7.01;100.00;98321.66;4956163;28;20503;-75
2021/11/17 07:16:39;;;;;;;70.32;36.60;;;;;;;7.08;100.00;98338.53;4956723;28;20019;-75
2021/11/17 07:19:10;;;;;;;81.90;39.22;;;;;;;7.04;100.00;98329.28;4956874;28;20066;-76
2021/11/17 07:21:37;;;;;;;72.38;39.42;;;;;;;7.04;100.00;98325.75;4961577;28;20042;-81
2021/11/17 07:24:03;;;;;;;81.47;41.42;;;;;;;7.11;100.00;98331.78;4976002;28;20022;-75
2021/11/17 07:26:29;;;;;;;82.70;41.00;;;;;;;7.18;100.00;98326.91;4969192;28;20007;-80
2021/11/17 07:28:54;;;;;;;76.78;39.85;;;;;;;7.25;100.00;98344.63;4983607;28;20023;-83
2021/11/17 07:31:20;;;;;;;82.45;41.65;;;;;;;7.22;100.00;98339.72;4982707;28;20041;-86
2021/11/17 07:33:45;;;;;;;80.88;40.05;;;;;;;7.23;100.00;98341.38;4998926;28;20018;-84
2021/11/17 07:36:11;;;;;;;85.72;41.58;;;;;;;7.11;100.00;98332.56;4975125;28;20098;-90
2021/11/17 07:38:37;;;;;;;78.57;39.42;;;;;;;6.99;100.00;98334.69;4941447;29;20023;-86
2021/11/17 07:41:03;;;;;;;74.05;39.05;;;;;;;7.15;100.00;98341.84;4941518;29;20118;-90
2021/11/17 07:43:29;;;;;;;71.22;38.50;;;;;;;7.22;100.00;98358.75;4942340;29;20522;-89
2021/11/17 07:45:55;;;;;;;73.85;37.97;;;;;;;7.20;100.00;98351.94;4960381;29;20106;-90
2021/11/17 07:48:23;;;;;;;74.05;38.47;;;;;;;7.26;100.00;98356.34;4943028;29;20055;-89
2021/11/17 07:50:49;;;;;;;83.85;39.30;;;;;;;7.31;100.00;98349.00;4944962;29;20081;-90
2021/11/17 07:53:17;;;;;;;82.43;41.60;;;;;;;7.41;100.00;98354.50;4962490;29;20051;-89
2021/11/17 07:55:46;;;;;;;74.88;39.75;;;;;;;7.41;100.00;98356.41;4959947;29;20027;-89
2021/11/17 07:58:12;;;;;;;76.38;39.00;;;;;;;7.24;100.00;98353.88;4940478;29;20114;-88
2021/11/17 08:00:41;;;;;;;77.60;38.85;;;;;;;7.35;100.00;98344.69;4958270;28;20032;-92
2021/11/17 08:03:09;;;;;;;72.72;37.50;;;;;;;7.44;100.00;98356.69;4959030;29;20027;-87
2021/11/17 08:05:35;;;;;;;71.82;37.85;;;;;;;7.49;100.00;98359.44;4958689;29;20042;-92
2021/11/17 08:08:01;;;;;;;81.57;41.28;;;;;;;7.52;100.00;98356.19;4959010;29;20492;-92
2021/11/17 08:10:30;;;;;;;74.90;39.10;;;;;;;7.64;100.00;98342.38;4941321;29;20039;-91
2021/11/17 08:12:55;;;;;;;75.45;38.17;;;;;;;7.84;100.00;98336.97;4941453;29;20031;-90
2021/11/17 08:15:22;;;;;;;72.10;36.55;;;;;;;8.05;100.00;98356.91;4958699;29;20031;-85
2021/11/17 08:17:47;;;;;;;69.72;36.75;;;;;;;7.88;100.00;98343.53;4941942;29;20499;-91
2021/11/17 08:20:16;;;;;;;74.35;37.83;;;;;;;7.77;100.00;98357.38;4958985;29;20023;-91
2021/11/17 08:22:48;;;;;;;70.82;38.17;;;;;;;7.85;100.00;98356.84;4942646;29;20043;-89
2021/11/17 08:25:17;;;;;;;70.28;35.95;;;;;;;7.95;100.00;98354.16;4946873;29;20027;-91
2021/11/17 08:27:42;;;;;;;66.75;34.85;;;;;;;7.87;100.00;98357.41;4958744;29;20054;-87
2021/11/17 08:30:10;;;;;;;72.10;36.85;;;;;;;7.88;100.00;98369.94;4942518;29;20476;-88
2021/11/17 08:32:41;;;;;;;67.03;35.05;;;;;;;8.00;100.00;98365.06;4944602;29;20035;-85
2021/11/17 08:35:09;;;;;;;69.85;36.15;;;;;;;8.05;100.00;98362.34;4960640;29;20082;-89
2021/11/17 08:37:35;;;;;;;69.22;35.20;;;;;;;8.02;100.00;98371.88;4961016;29;20027;-83
2021/11/17 08:40:02;;;;;;;64.82;33.80;;;;;;;8.01;100.00;98372.16;4947302;29;20030;-90
2021/11/17 08:42:27;;;;;;;72.47;34.22;;;;;;;7.92;100.00;98360.16;4943589;29;20023;-91
2021/11/17 08:44:54;;;;;;;71.00;36.08;;;;;;;7.94;100.00;98368.88;4960142;29;20122;-88
2021/11/17 08:47:19;;;;;;;63.17;32.72;;;;;;;8.04;100.00;98369.72;4960466;29;20643;-87
2021/11/17 08:49:46;;;;;;;68.55;35.25;;;;;;;8.19;100.00;98371.66;4944446;29;20118;-92
2021/11/17 08:52:12;;;;;;;63.13;33.55;;;;;;;8.26;100.00;98372.22;4946015;29;20042;-90
2021/11/17 08:54:38;;;;;;;66.93;34.97;;;;;;;8.41;100.00;98380.44;4964773;29;20031;-90
2021/11/17 08:57:05;;;;;;;64.97;34.85;;;;;;;8.35;100.00;98376.06;4948439;29;20031;-90
2021/11/17 08:59:33;;;;;;;57.63;31.13;;;;;;;8.30;100.00;98376.03;4951891;29;20031;-87
2021/11/17 09:02:04;;;;;;;60.95;33.35;;;;;;;8.02;100.00;98371.06;4972205;29;20042;-88
2021/11/17 09:04:29;;;;;;;60.38;34.47;;;;;;;7.96;100.00;98383.03;4968609;29;20035;-90
2021/11/17 09:06:55;;;;;;;64.60;34.00;;;;;;;8.07;100.00;98384.69;4946967;29;20028;-88
2021/11/17 09:09:21;;;;;;;63.25;33.40;;;;;;;8.16;100.00;98387.72;4962203;29;20870;-91
2021/11/17 09:11:47;;;;;;;62.35;34.53;;;;;;;7.94;100.00;98390.66;4963169;29;20051;-91
2021/11/17 09:14:13;;;;;;;65.47;35.45;;;;;;;7.97;100.00;98384.66;4964850;28;20039;-90
2021/11/17 09:16:40;;;;;;;67.32;34.60;;;;;;;7.83;100.00;98380.81;4946705;29;20027;-90
2021/11/17 09:19:07;;;;;;;63.90;34.55;;;;;;;7.58;100.00;98384.22;4946940;29;20110;-89
2021/11/17 09:21:35;;;;;;;68.63;35.25;;;;;;;7.51;100.00;98379.06;4946094;29;20118;-87
2021/11/17 09:24:06;;;;;;;58.20;33.10;;;;;;;7.61;100.00;98386.47;4963738;29;20023;-91
2021/11/17 09:26:32;;;;;;;65.47;33.13;;;;;;;7.88;100.00;98386.28;4945869;29;20031;-91
2021/11/17 09:28:59;;;;;;;63.65;33.35;;;;;;;7.90;100.00;98395.00;4962111;29;20015;-91
2021/11/17 09:31:29;;;;;;;49.55;26.27;;;;;;;7.92;100.00;98398.28;4964460;29;20015;-86
2021/11/17 09:33:54;;;;;;;51.08;27.58;;;;;;;7.65;100.00;98375.81;4945845;29;20027;-91
2021/11/17 09:36:23;;;;;;;49.10;27.13;;;;;;;7.81;100.00;98391.97;4945420;29;20047;-89
2021/11/17 09:38:51;;;;;;;53.63;28.38;;;;;;;7.88;100.00;98397.16;4945725;29;20039;-84
2021/11/17 09:41:26;;;;;;;60.15;31.38;;;;;;;7.94;100.00;98386.03;4945399;29;20122;-87
2021/11/17 09:43:56;;;;;;;57.88;30.27;;;;;;;7.98;100.00;98395.31;4946265;29;20543;-90
2021/11/17 09:46:24;;;;;;;63.83;33.10;;;;;;;8.02;100.00;98381.94;4945739;29;20027;-88
2021/11/17 09:49:04;;;;;;;60.60;32.50;;;;;;;8.26;100.00;98388.56;4962137;29;20140;-76
2021/11/17 09:51:58;;;;;;;59.70;32.13;;;;;;;8.26;99.53;98382.28;4946820;29;20027;-88
2021/11/17 09:54:34;;;;;;;58.40;31.27;;;;;;;8.19;99.12;98376.28;4943101;29;20042;-88
2021/11/17 09:57:13;;;;;;;55.67;28.75;;;;;;;8.23;98.39;98364.59;4944878;29;20086;-87
2021/11/17 09:59:46;;;;;;;57.63;28.58;;;;;;;8.47;97.26;98384.81;4961774;29;20027;-86
2021/11/17 10:02:17;;;;;;;55.45;30.10;;;;;;;8.61;97.95;98388.63;4963941;29;20562;-85
2021/11/17 10:04:49;;;;;;;59.20;30.00;;;;;;;8.75;97.13;98396.25;4967050;29;20031;-90
2021/11/17 10:08:02;;;;;;;60.78;32.95;;;;;;;8.51;97.83;98401.44;4963057;29;20563;-89
2021/11/17 10:12:57;;;;;;;45.72;26.00;;;;;;;8.55;95.74;98397.88;4964748;29;20027;-90
2021/11/17 10:15:30;;;;;;;54.17;28.35;;;;;;;8.69;95.49;98395.47;4962506;29;20039;-90
2021/11/17 10:18:04;;;;;;;52.45;27.05;;;;;;;8.68;95.81;98379.38;4945544;29;20031;-91
2021/11/17 10:20:58;;;;;;;53.72;27.83;;;;;;;8.74;95.69;98389.19;4964915;29;20461;-91
2021/11/17 10:23:36;;;;;;;49.80;24.70;;;;;;;8.63;93.79;98387.53;4945547;29;20023;-91
2021/11/17 10:26:04;;;;;;;47.13;25.17;;;;;;;8.59;93.45;98385.34;4961601;28;20398;-89
2021/11/17 10:28:36;;;;;;;45.13;24.52;;;;;;;8.48;93.71;98389.19;4944325;29;20031;-90
2021/11/17 10:31:13;;;;;;;47.65;25.08;;;;;;;8.60;91.66;98386.19;4944446;29;20086;-89
2021/11/17 10:33:58;;;;;;;38.85;22.10;;;;;;;8.58;90.12;98380.19;4944176;29;20041;-89
2021/11/17 10:36:35;;;;;;;41.55;23.05;;;;;;;8.46;90.31;98377.72;4960708;29;20047;-87
2021/11/17 10:39:06;;;;;;;41.00;22.85;;;;;;;8.41;92.66;98372.25;4962212;29;20032;-90
2021/11/17 10:41:33;;;;;;;39.22;22.58;;;;;;;8.24;90.47;98360.75;4960635;29;20090;-90
2021/11/17 10:43:59;;;;;;;37.88;21.48;;;;;;;8.37;90.95;98367.59;4961234;29;20039;-90
2021/11/17 10:46:32;;;;;;;44.97;23.38;;;;;;;8.40;91.65;98367.06;4943305;29;20023;-89
2021/11/17 10:49:18;;;;;;;40.67;23.10;;;;;;;8.38;90.86;98367.34;4960341;29;20549;-89
2021/11/17 10:51:56;;;;;;;46.88;25.48;;;;;;;8.43;90.99;98361.91;4960628;29;20027;-91
2021/11/17 10:54:27;;;;;;;45.47;23.92;;;;;;;8.45;91.48;98367.09;4959247;29;20546;-84
2021/11/17 10:57:17;;;;;;;41.05;22.23;;;;;;;8.42;90.94;98371.19;4959892;29;20115;-88
2021/11/17 10:59:43;;;;;;;45.42;24.77;;;;;;;8.29;93.97;98355.34;4942496;29;20038;-90
2021/11/17 11:02:11;;;;;;;46.92;24.45;;;;;;;8.17;91.63;98343.03;4960873;29;20420;-90
2021/11/17 11:05:08;;;;;;;47.88;27.05;;;;;;;8.32;94.10;98365.72;4963890;29;20099;-91
2021/11/17 11:07:43;;;;;;;48.53;25.42;;;;;;;8.28;92.98;98363.78;4959444;29;20508;-90
2021/11/17 11:10:36;;;;;;;48.45;25.17;;;;;;;8.31;93.38;98369.53;4941632;29;20419;-90
2021/11/17 11:13:05;;;;;;;46.70;25.90;;;;;;;8.42;94.41;98359.47;4941654;29;20081;-87
2021/11/17 11:15:45;;;;;;;49.78;24.95;;;;;;;8.58;92.37;98370.09;4961743;29;20031;-91
2021/11/17 11:18:10;;;;;;;50.10;25.55;;;;;;;8.73;91.55;98360.28;4959903;29;20035;-91
2021/11/17 11:20:47;;;;;;;44.90;26.20;;;;;;;8.72;90.91;98356.72;4942769;29;20481;-91
2021/11/17 11:23:17;;;;;;;48.97;26.83;;;;;;;8.63;91.21;98341.19;4941096;29;20011;-89
2021/11/17 11:25:58;;;;;;;49.80;25.95;;;;;;;8.76;91.49;98351.56;4958857;29;20118;-83
2021/11/17 11:28:26;;;;;;;54.15;27.08;;;;;;;8.75;92.57;98347.19;4943380;29;20472;-85
2021/11/17 11:31:03;;;;;;;50.45;26.92;;;;;;;8.94;91.04;98353.72;4962712;29;20082;-90
2021/11/17 11:33:35;;;;;;;49.33;27.20;;;;;;;8.94;90.56;98350.97;4945597;29;20023;-89
2021/11/17 11:36:10;;;;;;;55.40;27.65;;;;;;;9.04;90.55;98351.78;4941314;29;20038;-86
2021/11/17 11:38:43;;;;;;;49.20;26.35;;;;;;;9.11;89.28;98356.97;4941968;29;20054;-88
2021/11/17 11:41:41;;;;;;;49.95;27.83;;;;;;;9.24;89.72;98350.13;4941770;29;20031;-89
2021/11/17 11:44:19;;;;;;;53.67;28.33;;;;;;;9.36;88.76;98348.72;4943062;29;20027;-87
2021/11/17 11:46:45;;;;;;;54.40;28.20;;;;;;;9.39;89.14;98341.88;4958965;29;20110;-89
2021/11/17 11:49:45;;;;;;;47.05;26.80;;;;;;;9.46;87.90;98340.47;4941384;29;20058;-89
2021/11/17 11:52:20;;;;;;;46.97;24.67;;;;;;;9.44;87.41;98339.94;4952616;29;20043;-89
2021/11/17 11:54:51;;;;;;;50.73;26.87;;;;;;;9.44;87.81;98345.41;4958545;29;20030;-90
2021/11/17 11:57:34;;;;;;;52.88;26.15;;;;;;;9.47;88.83;98344.84;4959564;29;20262;-90
2021/11/17 12:00:12;;;;;;;53.03;27.77;;;;;;;9.40;88.35;98341.59;4959062;29;20043;-90
2021/11/17 12:02:45;;;;;;;55.90;28.88;;;;;;;9.33;88.71;98338.34;4941454;29;20464;-89
2021/11/17 12:05:21;;;;;;;54.05;29.15;;;;;;;9.19;90.64;98341.94;4942360;29;20046;-91
2021/11/17 12:07:51;;;;;;;;;;;;;;;8.88;91.27;98333.81;4958369;29;20078;-89
2021/11/17 12:10:41;;;;;;;54.83;27.55;;;;;;;9.14;92.71;98337.31;4958174;29;19914;-89
2021/11/17 12:13:30;;;;;;;57.88;30.05;;;;;;;9.15;90.58;98330.75;4957944;29;20506;-91
2021/11/17 12:16:13;;;;;;;51.75;27.75;;;;;;;9.50;91.05;98316.97;4940628;29;20034;-91
2021/11/17 12:18:48;;;;;;;55.90;29.15;;;;;;;9.53;90.69;98321.06;4958366;29;20031;-91
2021/11/17 12:21:23;;;;;;;53.47;28.50;;;;;;;9.67;89.89;98335.75;4957638;29;20027;-90
2021/11/17 12:24:09;;;;;;;53.28;27.65;;;;;;;9.69;87.82;98325.38;4957299;29;20096;-88
2021/11/17 12:26:36;;;;;;;;;;;;;;;9.51;88.69;98324.09;4939938;29;20053;-89
2021/11/17 12:29:10;;;;;;;48.88;26.42;;;;;;;9.52;88.40;98333.91;4941480;29;19977;-90
2021/11/17 12:31:55;;;;;;;47.63;26.83;;;;;;;9.67;88.27;98328.41;4962246;29;20047;-92
2021/11/17 12:34:25;;;;;;;50.83;27.85;;;;;;;9.69;89.31;98330.81;4942041;29;20055;-90
2021/11/17 12:37:05;;;;;;;61.15;29.40;;;;;;;9.64;87.50;98309.84;4940527;29;20062;-92
2021/11/17 12:39:35;;;;;;;53.80;27.50;;;;;;;9.75;86.77;98312.50;4939138;29;20070;-90
2021/11/17 12:42:06;;;;;;;54.55;29.58;;;;;;;9.54;88.04;98309.88;4957360;29;20027;-90
2021/11/17 12:44:39;;;;;;;49.45;26.75;;;;;;;9.50;87.89;98318.91;4941773;29;20074;-85
2021/11/17 12:47:13;;;;;;;48.60;27.15;;;;;;;9.39;87.78;98315.41;4939787;28;20439;-92
2021/11/17 12:49:46;;;;;;;54.08;27.25;;;;;;;9.26;88.85;98310.53;4956768;29;20031;-91
2021/11/17 12:52:21;;;;;;;52.83;27.98;;;;;;;9.38;90.21;98311.03;4957014;29;20131;-85
2021/11/17 12:54:59;;;;;;;48.58;27.58;;;;;;;9.48;88.61;98319.19;4938885;29;20046;-90
2021/11/17 12:57:32;;;;;;;50.05;27.27;;;;;;;9.46;88.28;98321.38;4939175;29;20391;-86
2021/11/17 13:00:12;;;;;;;45.05;26.13;;;;;;;9.43;88.95;98321.91;4956067;29;20053;-86
2021/11/17 13:02:51;;;;;;;55.05;27.63;;;;;;;9.39;90.15;98323.59;4955370;29;20039;-90
2021/11/17 13:05:22;;;;;;;49.70;27.10;;;;;;;9.22;91.21;98314.91;4956496;29;20027;-85
2021/11/17 13:07:54;;;;;;;53.22;27.52;;;;;;;9.13;91.39;98305.66;4955885;29;20059;-88
2021/11/17 13:10:31;;;;;;;48.15;25.65;;;;;;;9.08;91.49;98314.66;4956967;29;20066;-90
2021/11/17 13:13:16;;;;;;;50.92;27.02;;;;;;;8.83;91.92;98311.19;4955786;29;20075;-87
2021/11/17 13:15:50;;;;;;;51.83;27.88;;;;;;;8.71;94.37;98307.94;4955702;29;20023;-89
2021/11/17 13:18:32;;;;;;;55.85;28.38;;;;;;;8.91;92.84;98299.69;4955786;29;20039;-87
2021/11/17 13:21:11;;;;;;;54.72;28.98;;;;;;;9.00;93.69;98296.13;4953212;29;20031;-89
2021/11/17 13:23:42;;;;;;;50.47;28.27;;;;;;;8.94;93.52;98310.06;4955864;29;20098;-90
2021/11/17 13:26:35;;;;;;;50.15;27.50;;;;;;;8.93;92.98;98305.69;4955395;29;20090;-90
2021/11/17 13:29:54;;;;;;;50.97;27.83;;;;;;;8.83;93.80;98311.19;4913278;29;20454;-85
2021/11/17 13:32:40;;;;;;;53.90;27.67;;;;;;;8.83;95.24;98311.19;4876264;29;20128;-85
2021/11/17 13:35:24;;;;;;;50.95;27.58;;;;;;;8.81;96.58;98310.63;4959998;28;20035;-86
2021/11/17 13:38:05;;;;;;;45.67;26.02;;;;;;;8.75;95.42;98306.28;4960149;28;20045;-84
2021/11/17 13:40:31;;;;;;;51.08;27.02;;;;;;;8.69;95.68;98300.00;4961066;28;20078;-79
2021/11/17 13:42:57;;;;;;;55.88;27.45;;;;;;;8.74;96.26;98301.94;4958266;28;20424;-78
2021/11/17 13:45:27;;;;;;;54.08;26.10;;;;;;;8.71;96.17;98316.13;4957913;28;20062;-75
2021/11/17 13:47:53;;;;;;;49.75;26.70;;;;;;;8.61;95.53;98309.56;4959122;28;20057;-77
2021/11/17 13:50:22;;;;;;;52.05;25.33;;;;;;;8.59;97.51;98305.47;4964528;28;20041;-74
2021/11/17 13:52:49;;;;;;;49.17;26.00;;;;;;;8.59;98.13;98305.47;4958597;28;20035;-75
2021/11/17 13:55:20;;;;;;;46.38;26.42;;;;;;;8.50;98.20;98301.66;4964385;28;20032;-83
2021/11/17 13:57:46;;;;;;;51.88;26.60;;;;;;;8.47;97.75;98310.38;4958757;28;20043;-85
2021/11/17 14:00:14;;;;;;;45.40;25.50;;;;;;;8.32;99.76;98304.94;4963708;28;20019;-88
2021/11/17 14:02:40;;;;;;;44.22;26.25;;;;;;;8.20;99.42;98312.53;4954331;28;20090;-87
2021/11/17 14:05:07;;;;;;;48.92;25.88;;;;;;;8.13;100.00;98315.50;4978218;28;20011;-85
2021/11/17 14:07:34;;;;;;;57.70;27.92;;;;;;;8.22;100.00;98321.25;4981656;28;20022;-79
2021/11/17 14:10:00;;;;;;;50.22;26.23;;;;;;;8.17;99.42;98308.44;4977410;28;20062;-81
2021/11/17 14:12:25;;;;;;;53.83;28.08;;;;;;;8.25;98.99;98326.97;4962648;28;20058;-85
2021/11/17 14:14:54;;;;;;;55.22;28.00;;;;;;;8.16;100.00;98325.88;4962765;28;20050;-86
2021/11/17 14:17:19;;;;;;;52.15;25.92;;;;;;;8.24;99.54;98322.59;4962302;28;20113;-85
2021/11/17 14:19:45;;;;;;;48.78;27.02;;;;;;;8.09;100.00;98317.13;4962620;28;20066;-90
2021/11/17 14:22:11;;;;;;;46.97;26.50;;;;;;;8.13;99.97;98318.25;4964419;28;20030;-77
2021/11/17 14:24:36;;;;;;;54.53;27.80;;;;;;;8.18;100.00;98325.59;4972159;28;20053;-83
2021/11/17 14:27:08;;;;;;;57.63;27.15;;;;;;;8.23;100.00;98331.88;4992180;28;20032;-82
2021/11/17 14:29:44;;;;;;;51.45;26.55;;;;;;;8.30;98.64;98327.00;4986595;28;20011;-85
2021/11/17 14:32:11;;;;;;;;;;;;;;;8.31;98.45;98325.09;4990689;28;20034;-85
2021/11/17 14:34:37;;;;;;;54.33;27.55;;;;;;;8.32;98.34;98330.28;4994468;28;19933;-81